Timber Mountain, Nevada Weather observations

Data are for 10 minute period ending at time listed.
 Day   Time   Solar   Ave.   Ave.  Ave.  Vector  Max.   Baro.   Total    
  of    of     Rad.   Air    Rel.  Wind   Wind   Wind  Press.  Precip.   
Year   Day            Temp.  Hum.  Speed  Dir.   Gust                    
2016   (PST)  Kw/m2    F      %     mph   deg.    mph    mb.     in.     
-------------------------------------------------------------------------
 210   10:00   0.84   92.3    12    6.9   228    14.8   815.7    0.00 
 210   11:00   0.96   93.9    11    6.9   239    14.3   815.6    0.00 
 210   12:00   0.98   94.0    12    6.8   210    18.6   815.3    0.00 
 210   13:00   1.03   95.2    11    8.7   236    22.6   815.0    0.00 
 210   14:00   0.99   96.4    11    8.7   222    23.7   814.5    0.00 
 210   15:00   0.58   94.3    12   10.1   222    21.3   813.9    0.00 
 210   16:00   0.34   92.5    13    8.6   209    25.9   813.9    0.00 
 210   17:00   0.26   88.5    16   10.8   104    22.6   814.0    0.00 
 210   18:00   0.28   89.5    16    9.1   129    22.7   813.9    0.00 
 210   19:00   0.07   86.1    17    8.7   157    24.5   814.3    0.00 
 210   20:00   0.00   85.1    15    6.9   158    23.0   814.4    0.00 
 210   21:00   0.00   80.5    17    5.5   112     8.3   814.7    0.00 
 210   22:00   0.00   79.9    22    8.1    12    22.8   815.4    0.00 
 210   23:00   0.00   78.7    24    7.4    36    20.0   815.3    0.00 
 211    0:00   0.00   79.1    22    5.8    82    14.1   815.5    0.00 
 211    1:00   0.00   77.5    25    8.0   108    15.4   815.8    0.00 
 211    2:00   0.00   75.3    28    4.6   111     7.8   815.3    0.00 
 211    3:00   0.00   79.0    23    4.4   277    21.7   814.7    0.00 
 211    4:00   0.00   81.1    20    3.7   339    16.4   814.4    0.00 
 211    5:00   0.00   77.7    24    2.9   249    11.3   814.5    0.00 
 211    6:00   0.02   74.6    27    1.6    49     6.4   814.7    0.00 
 211    7:00   0.14   77.2    26    2.4    97     5.2   814.8    0.00 
 211    8:00   0.47   86.7    19    4.8   248    11.2   815.2    0.00 
 211    9:00   0.65   88.7    18    6.1   230    11.5   815.2    0.00 

Return to Timber Mountain graphs page.


Western Regional Climate Center,wrcc@dri.edu